This is the latest recevied weather packets stored in our database for station/object LRBS. If no packets are shown the sender has not sent any weather packets the latest 1 day(s).
| Time | Temp. | Humidity | Pressure | Rain* | Wind** | Luminosity | Snow |
|---|---|---|---|---|---|---|---|
| 1778086994 | 22.22° C | 44% | 1013 hPa | - | - | - | - |
| 1778082495 | 25° C | 36% | 1013 hPa | - | - | - | - |
| 1778080694 | 25° C | 36% | 1013 hPa | - | - | - | - |
| 1778078006 | 26.11° C | 34% | 1013 hPa | - | - | - | - |
| 1778072603 | 26.11° C | 34% | 1014 hPa | - | - | - | - |
| 1778071695 | 26.11° C | 34% | 1014 hPa | - | - | - | - |
| 1778066294 | 25° C | 39% | 1015 hPa | - | - | - | - |
| 1778065394 | 25° C | 39% | 1015 hPa | - | - | - | - |
| 1778061794 | 23.89° C | 36% | 1015 hPa | - | - | - | - |
| 1778059994 | 23.89° C | 36% | 1015 hPa | - | - | - | - |
| 1778059094 | 23.89° C | 39% | 1015 hPa | - | - | - | - |
| 1778056394 | 22.22° C | 38% | 1015 hPa | - | - | - | - |
| 1778055491 | 22.22° C | 44% | 1015 hPa | - | - | - | - |
| 1778053695 | 20° C | 53% | 1015 hPa | - | - | - | - |
| 1778051894 | 17.78° C | 52% | 1015 hPa | - | - | - | - |
| 1778050994 | 17.78° C | 52% | 1015 hPa | - | - | - | - |
| 1778049194 | 17.22° C | 56% | 1015 hPa | - | - | - | - |
| 1778047396 | 16.11° C | 59% | 1015 hPa | - | - | - | - |
| 1778046495 | 12.78° C | 67% | 1015 hPa | - | - | - | - |
| 1778044694 | 11.11° C | 77% | 1015 hPa | - | - | - | - |
| 1778043808 | 11.11° C | 77% | 1015 hPa | - | - | - | - |
| 1778042910 | 11.11° C | 77% | 1015 hPa | - | - | - | - |
| 1778041998 | 11.11° C | 77% | 1015 hPa | - | - | - | - |
| 1778041095 | 8.89° C | 87% | 1015 hPa | - | - | - | - |
| 1778040194 | 8.89° C | 87% | 1015 hPa | - | - | - | - |
* Rain since midnight (hover to see other rain measurements)
** Current wind speed in m/s (hover to see current wind gust speed)